x

Boston 16 Nm East Of Boston, Ma (44013) Wave Buoy

3:50pm - Sat 21st Jan 2017 All times are EST. -5 hours from GMT.

  • Sig Wave height 3.6ft
  • Swell Direction
  • Peak Period 12s
  • Average Period 9s
  • Wind
    4mph, 7mph gusts
  • Sea Temp 44°f
  • 空気 Temp 47°f
  • Sea Pressure 1005.4mb
  • Boston 16 Nm East Of Boston, Ma
  • Boston 16 Nm East Of Boston, Ma

More Historic Weather Station data

Upgrade to MSW Pro to gain access to the past 30 days of data for over 8000 Wavebouys and Weather Stations around the globe.

Join Pro

Comparision Forecast

View Surf forecast
   
Sat 01/21 3:50pm 3.5ft 12s 9s 4 7 mph 1005.4mb 44f 47f
2:50pm 3.5ft 10s 9s 9 11 mph 1005.8mb 44f 47f
1:50pm 3.5ft 11s 9s 2 4 mph 1006.2mb 44f 46f
12:50pm 3.5ft 11s 9s 7 9 mph 1006.6mb 44f 44f
11:50am 3.5ft 11s 8s 9 11 mph 1007.9mb 44f 43f
10:50am 3.5ft 10s 8s 9 11 mph 1009.1mb 44f 42f
9:50am 3.5ft 11s 8s 9
mph
1009.5mb 44f 42f
8:50am 3ft 11s 7s 11 13 mph 1009.6mb 44f 42f
7:50am 3.5ft 12s 7s 13 16 mph 1009.6mb 44f 41f
6:50am 3.5ft 11s 8s 13 16 mph 1009.2mb 44f 41f
5:50am 3ft 10s 8s 11 13 mph 1010.2mb 44f 41f
4:50am 2.5ft 10s 7s 7 9 mph 1010.7mb 45f 39f
3:50am 2.5ft 11s 7s 9 11 mph 1011.1mb 44f 39f
2:50am 3.5ft 10s 7s 9 11 mph 1011.5mb 44f 39f
1:50am 3ft 10s 6s 13 16 mph 1012.2mb 44f 39f
12:50am 3ft 11s 7s 11 13 mph 1012.1mb 44f 40f
Fri 01/20 11:50pm 2.5ft 11s 7s 11 13 mph 1012.4mb 44f 40f
10:50pm 3ft 10s 7s 9 11 mph 1013mb 44f 41f
9:50pm 3ft 8s 7s 9 11 mph 1013.1mb 44f 41f
8:50pm 3ft 9s 7s 9 11 mph 1013.3mb 44f 41f
7:50pm 3.5ft 9s 7s 11 13 mph 1013.4mb 44f 41f
6:50pm 3.5ft 10s 7s 9 11 mph 1013.6mb 44f 42f
5:50pm 3ft 11s 7s 9
mph
1013.2mb 44f 41f
4:50pm 3ft 9s 6s 9 11 mph 1013.2mb 44f 41f
3:50pm 3.5ft 10s 6s 7
mph
1013.8mb 44f 41f
2:50pm 3.5ft 11s 7s 4 9 mph 1013.9mb 44f 41f
1:50pm 3.5ft 11s 6s 4 7 mph 1014.4mb 44f 41f
12:50pm 4ft 11s 7s 4 7 mph 1014.5mb 44f 41f
11:50am 3.5ft 11s 7s 2 4 mph 1015.4mb 44f 41f
10:50am 4.5ft 10s 7s 7 9 mph 1016.2mb 44f 41f
9:50am 4ft 9s 7s 4
mph
1016.3mb 44f 41f
8:50am 4.5ft 9s 7s 4 7 mph 1016mb 44f 41f
7:50am 4.5ft 11s 7s 2 4 mph 1015.4mb 44f 41f
6:50am 4.5ft 10s 7s 4 9 mph 1015.3mb 44f 41f
5:50am 4.5ft 11s 7s 7 11 mph 1015.4mb 44f 39f
4:50am 4ft 11s 6s 9 11 mph 1015.3mb 44f 42f
3:50am 4.5ft 10s 7s 7 11 mph 1015mb 44f 42f
2:50am 4.5ft 9s 6s 11 13 mph 1014.7mb 44f 40f
1:50am 4.5ft 9s 6s 11 13 mph 1014.8mb 44f 41f
12:50am 4.5ft 11s 6s 18 22 mph 1014.1mb 44f 40f
Thu 01/19 11:50pm 5ft 11s 6s 16 20 mph 1015.3mb 44f 40f
10:50pm 4.5ft 10s 6s 18 20 mph 1015.9mb 44f 41f
9:50pm 4.5ft 10s 6s 18 22 mph 1015.8mb 44f 42f
8:50pm 5ft 8s 7s 16 18 mph 1015.4mb 44f 42f
7:50pm 5ft 10s 7s 16 20 mph 1014.7mb 44f 43f
6:50pm 5ft 10s 7s 13 18 mph 1014.5mb 44f 43f
5:50pm 4ft 9s 6s 11 13 mph 1013.5mb 44f 43f
4:50pm 4.5ft 8s 6s 11 13 mph 1013mb 45f 43f
3:50pm 4.5ft 8s 6s 20 25 mph 1012.8mb 45f 43f
2:50pm 4.5ft 10s 7s 16 20 mph 1012.7mb 45f 43f
1:50pm 5ft 8s 7s 11 13 mph 1012.8mb 45f 42f
12:50pm 5ft 10s 7s 9 11 mph 1013.4mb 45f 40f
11:50am 5ft 9s 7s 7 11 mph 1014.1mb 45f 38f
10:50am 5ft 8s 7s 7 9 mph 1015.3mb 45f 37f
9:50am 6ft 9s 7s 4 7 mph 1015.7mb 44f 38f
8:50am 5.5ft 8s 7s 4 7 mph 1015.7mb 44f 36f
7:50am 6ft 8s 7s 4 7 mph 1015.5mb 44f 36f
6:50am 6ft 8s 7s 4 7 mph 1015.3mb 45f 35f
5:50am 6ft 8s 7s 7 9 mph 1015.3mb 45f 35f
4:50am 7ft 8s 7s 9 11 mph 1015mb 45f 35f
3:50am 6ft 9s 6s 11 13 mph 1014.8mb 45f 34f
2:50am 7ft 8s 7s 16 18 mph 1015mb 45f 37f
1:50am 7ft 8s 6s 13 18 mph 1014.8mb 45f 37f
12:50am 7ft 9s 6s 18 20 mph 1014.9mb 45f 37f
Wed 01/18 11:50pm 8.5ft 9s 7s 16 18 mph 1014.8mb 45f 37f
10:50pm 8ft 9s 7s 9 13 mph 1015.2mb 45f 41f
9:50pm 8.5ft 9s 7s 13 16 mph 1015.2mb 45f 41f
8:50pm 8ft 10s 7s 13 16 mph 1015.8mb 45f 42f
7:50pm 8.5ft 9s 7s 16 20 mph 1015.9mb 45f 41f
6:50pm 10ft 9s 7s 16 20 mph 1015.8mb 45f 41f
5:50pm 9.5ft 9s 7s 16 20 mph 1015.1mb 45f 42f
4:50pm 10ft 9s 7s 18 22 mph 1014.4mb 45f 42f
3:50pm 9ft 8s 6s 18 22 mph 1013.9mb 45f 41f
2:50pm 8ft 8s 6s 18 22 mph 1013.7mb 45f 41f
1:50pm 9ft 8s 6s 20 25 mph 1013.2mb 45f 40f
12:50pm 8ft 7s 6s 22 27 mph 1012.9mb 45f 40f
11:50am 7ft 7s 5s 22 27 mph 1013mb 45f 41f
10:50am 6ft 6s 5s 22 27 mph 1013.9mb 45f 41f
9:50am 5ft 6s 5s 22 27 mph 1014.5mb 45f 41f
8:50am 5ft 6s 5s 18 20 mph 1014.8mb 45f 41f
7:50am 5ft 6s 5s 20 22 mph 1014.1mb 45f 40f
6:50am 6ft 6s 5s 20 22 mph 1014.5mb 45f 39f
5:50am 5.5ft 6s 5s 20 25 mph 1014.6mb 45f 40f
4:50am 6ft 6s 5s 25 27 mph 1014.3mb 45f 39f
3:50am 5ft 6s 5s 25 29 mph 1014.5mb 45f 39f
2:50am 5.5ft 6s 5s 25 27 mph 1015.5mb 45f 39f
1:50am 5ft 6s 5s 25 27 mph 1016.2mb 45f 39f
12:50am 5ft 6s 5s 22 25 mph 1017.2mb 45f 40f
Tue 01/17 11:50pm 4.5ft 5s 4s 22 27 mph 1017.8mb 45f 40f
10:50pm 4.5ft 5s 4s 25 27 mph 1018.4mb 45f 39f